Montecito, California
Current Conditions -  °F | °C
As of 6:53 PM on Monday 22 Dec 2014 (Local Time) from KSBA Reporting Station
Clear Clear  
Wind Chill: 76°   Ceiling: Unl
Heat Index: 76°   Visibility: 10mi
Dew Point: 39°   Wind: 12mph
Humidity: 26%   Direction: 340°NNW
Pressure: 29.93"   Gusts: 23mph
Location:  34.4354°N, 119.641°W
Report Text: KSBA 230253Z 34010G20KT 10SM CLR 24/04 A2993 RMK AO2 SLP136 T02440039 53001
Loading
Personal Weather Stations






























Interactive Weather Map New forecast layout! Learn more

10-Day Weather Forecast

Advertisements
Track Severe Weather on mobile